createdAt,value
2022-08-20T00:00:41.585Z,20.63
2022-08-20T00:03:11.497Z,17.38
2022-08-20T00:05:43.949Z,17.52
2022-08-20T00:08:11.355Z,18.17
2022-08-20T00:10:41.357Z,20.58
2022-08-20T00:13:11.200Z,19.10
2022-08-20T00:15:42.899Z,19.17
2022-08-20T00:18:12.396Z,17.65
2022-08-20T00:20:43.272Z,20.67
2022-08-20T00:23:10.812Z,19.58
2022-08-20T00:25:37.855Z,18.02
2022-08-20T00:28:06.968Z,17.80
2022-08-20T00:30:35.784Z,16.98
2022-08-20T00:33:15.185Z,18.70
2022-08-20T00:35:45.981Z,17.50
2022-08-20T00:38:13.246Z,16.63
2022-08-20T00:40:50.848Z,19.00
2022-08-20T00:43:35.276Z,17.83
2022-08-20T00:46:06.225Z,16.70
2022-08-20T00:48:35.526Z,16.63
2022-08-20T00:51:15.036Z,14.75
2022-08-20T00:53:42.557Z,20.20
2022-08-20T00:56:11.098Z,17.55
2022-08-20T00:58:40.020Z,18.52
2022-08-20T01:01:07.982Z,19.20
2022-08-20T01:03:34.680Z,17.50
2022-08-20T01:06:01.487Z,19.58
2022-08-20T01:08:28.498Z,16.52
2022-08-20T01:11:18.117Z,35.42
2022-08-20T01:13:46.600Z,88.05
2022-08-20T01:16:19.560Z,69.28
2022-08-20T01:18:48.197Z,30.25
2022-08-20T01:21:19.466Z,27.67
2022-08-20T01:24:30.616Z,37.80
2022-08-20T01:26:59.937Z,35.67
2022-08-20T01:29:34.235Z,38.05
2022-08-20T01:32:02.246Z,28.33
2022-08-20T01:34:29.687Z,30.58
2022-08-20T01:36:57.808Z,30.20
2022-08-20T01:39:32.459Z,21.63
2022-08-20T01:42:04.801Z,25.00
2022-08-20T01:44:32.400Z,25.17
2022-08-20T01:47:10.327Z,27.35
2022-08-20T01:49:43.931Z,24.10
2022-08-20T01:52:15.092Z,25.67
2022-08-20T01:54:41.903Z,19.58
2022-08-20T01:57:20.364Z,16.58
2022-08-20T01:59:48.305Z,19.58
2022-08-20T02:02:15.016Z,20.15
2022-08-20T02:04:42.335Z,20.95
2022-08-20T02:07:15.468Z,20.98
2022-08-20T02:09:42.331Z,20.88
2022-08-20T02:12:10.816Z,21.95
2022-08-20T02:14:42.929Z,21.08
2022-08-20T02:17:11.831Z,21.05
2022-08-20T02:19:43.652Z,24.73
2022-08-20T02:22:16.803Z,24.10
2022-08-20T02:24:44.036Z,25.25
2022-08-20T02:27:11.063Z,21.20
2022-08-20T02:29:37.979Z,17.75
2022-08-20T02:32:32.062Z,18.70
2022-08-20T02:34:53.220Z,20.90
2022-08-20T02:37:19.873Z,18.85
2022-08-20T02:42:14.308Z,17.63
2022-08-20T02:44:40.975Z,19.58
2022-08-20T02:49:34.868Z,19.98
2022-08-20T02:52:01.519Z,15.57
2022-08-20T02:56:56.284Z,17.63
2022-08-20T02:59:22.983Z,19.02
2022-08-20T03:01:59.653Z,16.63
2022-08-20T03:04:29.203Z,14.50
2022-08-20T03:06:56.370Z,17.50
2022-08-20T03:09:23.089Z,15.15
2022-08-20T03:11:49.839Z,17.95
2022-08-20T03:14:16.775Z,14.32
2022-08-20T03:16:43.583Z,18.88
2022-08-20T03:19:10.295Z,16.00
2022-08-20T03:21:37.111Z,14.77
2022-08-20T03:24:04.139Z,17.40
2022-08-20T03:26:31.049Z,18.83
2022-08-20T03:28:57.732Z,16.35
2022-08-20T03:33:53.603Z,17.42
2022-08-20T03:36:27.736Z,16.30
2022-08-20T03:39:02.567Z,17.60
2022-08-20T03:41:29.332Z,21.33
2022-08-20T03:43:56.365Z,16.98
2022-08-20T03:46:24.082Z,18.90
2022-08-20T03:49:00.275Z,17.35
2022-08-20T03:51:29.169Z,17.83
2022-08-20T03:53:56.146Z,19.38
2022-08-20T03:56:22.824Z,22.20
2022-08-20T04:01:45.114Z,18.40
2022-08-20T04:04:03.419Z,17.65
2022-08-20T04:06:30.308Z,19.63
2022-08-20T04:08:57.443Z,15.73
2022-08-20T04:11:24.342Z,21.02
2022-08-20T04:13:51.395Z,18.77
2022-08-20T04:16:19.520Z,18.60
2022-08-20T04:19:01.710Z,18.80
2022-08-20T04:21:32.668Z,18.45
2022-08-20T04:24:01.027Z,16.80
2022-08-20T04:26:27.995Z,18.48
2022-08-20T04:28:55.385Z,14.38
2022-08-20T04:31:25.443Z,15.98
2022-08-20T04:33:52.710Z,17.70
2022-08-20T04:36:19.785Z,16.58
2022-08-20T04:38:48.113Z,17.92
2022-08-20T04:41:23.590Z,17.63
2022-08-20T04:43:53.448Z,18.95
2022-08-20T04:46:21.318Z,19.30
2022-08-20T04:48:48.705Z,16.63
2022-08-20T04:51:18.080Z,17.83
2022-08-20T04:53:52.344Z,17.45
2022-08-20T04:56:23.742Z,16.92
2022-08-20T04:58:52.351Z,15.70
2022-08-20T05:01:19.610Z,18.58
2022-08-20T05:03:49.078Z,16.33
2022-08-20T05:06:17.728Z,17.77
2022-08-20T05:08:44.907Z,17.98
2022-08-20T05:11:34.735Z,17.50
2022-08-20T05:13:58.755Z,15.13
2022-08-20T05:16:25.656Z,16.20
2022-08-20T05:18:52.982Z,14.48
2022-08-20T05:21:20.710Z,14.40
2022-08-20T05:23:47.504Z,15.93
2022-08-20T05:26:15.767Z,13.13
2022-08-20T05:28:52.709Z,12.75
2022-08-20T05:31:31.924Z,17.52
2022-08-20T05:34:02.667Z,18.50
2022-08-20T05:36:29.711Z,16.83
2022-08-20T05:38:56.476Z,14.75
2022-08-20T05:41:27.651Z,15.07
2022-08-20T05:44:00.483Z,14.75
2022-08-20T05:46:27.553Z,15.23
2022-08-20T05:48:54.211Z,15.98
2022-08-20T05:53:47.491Z,14.23
2022-08-20T05:58:40.743Z,13.80
2022-08-20T06:03:52.552Z,12.18
2022-08-20T06:06:38.788Z,11.70
2022-08-20T06:09:06.928Z,13.50
2022-08-20T06:11:37.174Z,13.35
2022-08-20T06:14:05.682Z,12.70
2022-08-20T06:16:32.486Z,14.55
2022-08-20T06:18:59.223Z,13.00
2022-08-20T06:21:26.462Z,13.88
2022-08-20T06:23:57.509Z,12.73
2022-08-20T06:26:30.575Z,14.88
2022-08-20T06:28:59.157Z,14.05
2022-08-20T06:31:27.224Z,13.73
2022-08-20T06:33:54.074Z,17.90
2022-08-20T06:36:20.781Z,12.05
2022-08-20T06:41:14.205Z,14.10
2022-08-20T06:43:41.076Z,14.40
2022-08-20T06:46:08.153Z,12.63
2022-08-20T06:48:35.362Z,15.40
2022-08-20T06:51:02.074Z,13.25
2022-08-20T06:55:58.855Z,13.00
2022-08-20T06:58:37.373Z,10.50
2022-08-20T07:01:10.120Z,11.07
2022-08-20T07:03:39.082Z,13.40
2022-08-20T07:06:07.013Z,14.10
2022-08-20T07:08:33.758Z,10.55
2022-08-20T07:11:00.501Z,14.52
2022-08-20T07:13:28.473Z,13.43
2022-08-20T07:15:56.117Z,9.27
2022-08-20T07:18:28.198Z,13.88
2022-08-20T07:23:25.403Z,12.63
2022-08-20T07:25:52.826Z,15.13
2022-08-20T07:28:25.018Z,11.20
2022-08-20T07:31:13.803Z,12.65
2022-08-20T07:33:44.286Z,11.63
2022-08-20T07:36:12.782Z,8.25
2022-08-20T07:38:39.646Z,9.63
2022-08-20T07:41:09.897Z,11.10
2022-08-20T07:43:36.791Z,11.80
2022-08-20T07:46:07.646Z,9.52
2022-08-20T07:48:39.753Z,8.85
2022-08-20T07:51:08.287Z,10.15
2022-08-20T07:53:37.503Z,13.23
2022-08-20T07:56:07.286Z,9.02
2022-08-20T07:58:38.228Z,10.68
2022-08-20T08:01:06.808Z,7.35
2022-08-20T08:03:39.688Z,11.65
2022-08-20T08:06:29.009Z,9.85
2022-08-20T08:09:13.689Z,8.32
2022-08-20T08:11:47.225Z,9.35
2022-08-20T08:14:16.925Z,8.77
2022-08-20T08:16:45.489Z,11.63
2022-08-20T08:19:15.139Z,7.22
2022-08-20T08:21:42.264Z,8.38
2022-08-20T08:24:12.726Z,9.43
2022-08-20T08:26:41.144Z,7.90
2022-08-20T08:29:07.823Z,8.15
2022-08-20T08:31:35.023Z,9.45
2022-08-20T08:34:01.707Z,9.25
2022-08-20T08:36:28.487Z,11.23
2022-08-20T08:38:56.450Z,10.30
2022-08-20T08:41:29.371Z,6.38
2022-08-20T08:46:27.352Z,8.77
2022-08-20T08:48:57.763Z,9.73
2022-08-20T08:51:35.285Z,7.13
2022-08-20T08:54:06.635Z,13.88
2022-08-20T08:56:35.160Z,10.23
2022-08-20T08:59:08.534Z,7.63
2022-08-20T09:01:55.064Z,8.88
2022-08-20T09:04:31.360Z,9.38
2022-08-20T09:06:59.284Z,10.15
2022-08-20T09:09:36.347Z,9.95
2022-08-20T09:12:18.985Z,7.10
2022-08-20T09:14:47.955Z,7.05
2022-08-20T09:17:19.859Z,7.75
2022-08-20T09:19:46.614Z,9.20
2022-08-20T09:22:16.098Z,9.32
2022-08-20T09:24:43.361Z,10.88
2022-08-20T09:27:10.964Z,8.57
2022-08-20T09:29:37.804Z,9.25
2022-08-20T09:32:20.767Z,5.93
2022-08-20T09:34:58.134Z,6.25
2022-08-20T09:37:27.466Z,9.32
2022-08-20T09:39:54.262Z,7.95
2022-08-20T09:42:29.469Z,8.05
2022-08-20T09:44:56.250Z,8.73
2022-08-20T09:47:22.989Z,9.60
2022-08-20T09:49:49.938Z,7.45
2022-08-20T09:52:27.667Z,4.32
2022-08-20T09:55:01.002Z,6.63
2022-08-20T09:57:30.276Z,6.57
2022-08-20T10:00:02.271Z,8.68
2022-08-20T10:02:39.309Z,7.00
2022-08-20T10:05:06.543Z,6.32
2022-08-20T10:07:38.087Z,6.45
2022-08-20T10:10:06.436Z,6.65
2022-08-20T10:12:33.152Z,7.25
2022-08-20T10:14:59.880Z,6.55
2022-08-20T10:17:26.555Z,8.48
2022-08-20T10:19:53.204Z,6.80
2022-08-20T10:22:19.858Z,9.00
2022-08-20T10:24:46.591Z,6.65
2022-08-20T10:27:13.304Z,9.93
2022-08-20T10:29:42.189Z,7.68
2022-08-20T10:32:17.087Z,7.13
2022-08-20T10:34:45.654Z,9.05
2022-08-20T10:37:17.814Z,12.38
2022-08-20T10:39:45.406Z,8.23
2022-08-20T10:42:12.637Z,9.88
2022-08-20T10:44:39.924Z,10.02
2022-08-20T10:47:25.606Z,9.77
2022-08-20T10:49:57.500Z,11.65
2022-08-20T10:52:24.773Z,7.15
2022-08-20T10:54:52.347Z,11.55
2022-08-20T10:57:21.761Z,8.32
2022-08-20T10:59:50.231Z,11.45
2022-08-20T11:02:17.405Z,9.88
2022-08-20T11:04:44.264Z,7.75
2022-08-20T11:07:50.431Z,10.88
2022-08-20T11:10:24.994Z,11.65
2022-08-20T11:12:51.756Z,10.40
2022-08-20T11:15:18.435Z,10.18
2022-08-20T11:17:45.747Z,10.10
2022-08-20T11:20:15.755Z,9.82
2022-08-20T11:22:42.448Z,7.43
2022-08-20T11:25:09.679Z,8.18
2022-08-20T11:27:41.661Z,7.38
2022-08-20T11:30:14.220Z,6.78
2022-08-20T11:32:40.971Z,6.78
2022-08-20T11:35:31.006Z,8.07
2022-08-20T11:37:56.667Z,9.02
2022-08-20T11:40:24.936Z,7.38
2022-08-20T11:43:13.594Z,11.10
2022-08-20T11:45:38.622Z,9.95
2022-08-20T11:48:05.720Z,10.18
2022-08-20T11:50:32.559Z,7.15
2022-08-20T11:52:59.388Z,8.52
2022-08-20T11:55:30.180Z,8.60
2022-08-20T11:57:59.609Z,8.48
2022-08-20T12:00:33.151Z,12.18
2022-08-20T12:03:01.942Z,7.93
2022-08-20T12:05:29.803Z,9.68
2022-08-20T12:07:57.438Z,6.93
2022-08-20T12:10:26.516Z,10.68
2022-08-20T12:12:53.454Z,11.10
2022-08-20T12:15:20.560Z,16.60
2022-08-20T12:17:47.252Z,7.90
2022-08-20T12:20:15.699Z,10.05
2022-08-20T12:22:43.778Z,9.68
2022-08-20T12:25:11.850Z,9.98
2022-08-20T12:27:38.944Z,7.53
2022-08-20T12:30:09.822Z,11.00
2022-08-20T12:32:36.631Z,8.18
2022-08-20T12:35:04.231Z,20.00
2022-08-20T12:37:32.320Z,8.32
2022-08-20T12:40:00.914Z,8.43
2022-08-20T12:42:30.259Z,9.43
2022-08-20T12:44:57.756Z,10.40
2022-08-20T12:47:33.898Z,11.68
2022-08-20T12:50:15.834Z,7.57
2022-08-20T12:52:42.799Z,8.38
2022-08-20T12:55:11.668Z,10.80
2022-08-20T12:57:47.996Z,12.93
2022-08-20T13:00:22.638Z,6.25
2022-08-20T13:02:52.540Z,7.28
2022-08-20T13:05:20.372Z,8.18
2022-08-20T13:07:48.063Z,8.90
2022-08-20T13:10:22.214Z,7.28
2022-08-20T13:12:49.654Z,9.63
2022-08-20T13:15:17.267Z,7.15
2022-08-20T13:17:44.169Z,7.53
2022-08-20T13:20:15.215Z,9.98
2022-08-20T13:22:42.235Z,9.48
2022-08-20T13:25:11.313Z,10.57
2022-08-20T13:27:40.194Z,10.45
2022-08-20T13:30:09.844Z,7.97
2022-08-20T13:32:36.552Z,8.27
2022-08-20T13:35:03.618Z,10.27
2022-08-20T13:37:30.647Z,9.05
2022-08-20T13:39:58.635Z,13.48
2022-08-20T13:42:26.788Z,11.10
2022-08-20T13:44:54.354Z,11.25
2022-08-20T13:47:34.041Z,7.93
2022-08-20T13:50:05.366Z,10.27
2022-08-20T13:52:32.987Z,9.75
2022-08-20T13:55:03.173Z,9.70
2022-08-20T13:57:33.351Z,13.23
2022-08-20T14:00:00.226Z,9.70
2022-08-20T14:02:27.639Z,8.82
2022-08-20T14:04:54.635Z,8.35
2022-08-20T14:07:32.218Z,12.27
2022-08-20T14:10:10.416Z,10.65
2022-08-20T14:12:37.200Z,9.73
2022-08-20T14:15:04.816Z,10.27
2022-08-20T14:17:34.578Z,10.80
2022-08-20T14:20:08.508Z,7.47
2022-08-20T14:22:36.828Z,10.25
2022-08-20T14:25:05.281Z,8.98
2022-08-20T14:27:33.589Z,10.95
2022-08-20T14:30:01.737Z,7.95
2022-08-20T14:32:28.482Z,9.93
2022-08-20T14:34:59.098Z,10.13
2022-08-20T14:37:31.371Z,13.43
2022-08-20T14:40:00.237Z,10.57
2022-08-20T14:42:28.672Z,7.53
2022-08-20T14:44:57.169Z,8.55
2022-08-20T14:47:25.719Z,9.05
2022-08-20T14:49:54.860Z,11.95
2022-08-20T14:52:23.295Z,13.18
2022-08-20T14:54:55.101Z,13.25
2022-08-20T14:57:21.792Z,11.40
2022-08-20T14:59:48.706Z,11.07
2022-08-20T15:02:17.151Z,10.32
2022-08-20T15:04:45.383Z,10.70
2022-08-20T15:07:31.427Z,10.00
2022-08-20T15:10:00.369Z,12.07
2022-08-20T15:12:28.785Z,9.13
2022-08-20T15:14:55.490Z,9.25
2022-08-20T15:17:28.759Z,9.40
2022-08-20T15:19:56.081Z,8.90
2022-08-20T15:22:24.078Z,10.95
2022-08-20T15:24:55.494Z,11.30
2022-08-20T15:27:26.015Z,8.60
2022-08-20T15:29:53.936Z,9.35
2022-08-20T15:32:21.246Z,8.13
2022-08-20T15:34:48.627Z,12.15
2022-08-20T15:37:22.109Z,7.72
2022-08-20T15:39:50.434Z,9.88
2022-08-20T15:42:19.329Z,9.38
2022-08-20T15:44:46.698Z,8.45
2022-08-20T15:47:16.364Z,7.80
2022-08-20T15:49:44.511Z,6.40
2022-08-20T15:52:11.894Z,6.75
2022-08-20T15:54:39.627Z,10.15
2022-08-20T15:57:12.686Z,8.23
2022-08-20T16:00:02.469Z,7.47
2022-08-20T16:03:06.043Z,6.65
2022-08-20T16:05:55.989Z,8.00
2022-08-20T16:08:53.984Z,8.25
2022-08-20T16:11:41.674Z,9.77
2022-08-20T16:14:19.343Z,9.27
2022-08-20T16:16:59.101Z,7.50
2022-08-20T16:19:36.202Z,7.75
2022-08-20T16:22:04.573Z,8.98
2022-08-20T16:24:32.303Z,8.57
2022-08-20T16:27:01.793Z,9.23
2022-08-20T16:29:37.692Z,9.35
2022-08-20T16:32:12.582Z,8.48
2022-08-20T16:34:54.291Z,7.80
2022-08-20T16:37:30.032Z,6.40
2022-08-20T16:40:18.345Z,8.82
2022-08-20T16:42:47.654Z,8.00
2022-08-20T16:45:25.404Z,9.38
2022-08-20T16:47:55.432Z,7.90
2022-08-20T16:50:59.459Z,8.98
2022-08-20T16:53:26.995Z,8.02
2022-08-20T16:55:54.721Z,9.02
2022-08-20T16:58:21.800Z,10.07
2022-08-20T17:01:10.636Z,7.90
2022-08-20T17:03:40.231Z,13.85
2022-08-20T17:06:17.255Z,7.68
2022-08-20T17:08:48.453Z,8.50
2022-08-20T17:11:25.809Z,6.95
2022-08-20T17:14:03.868Z,5.90
2022-08-20T17:16:40.884Z,8.98
2022-08-20T17:19:18.636Z,10.25
2022-08-20T17:21:45.663Z,7.47
2022-08-20T17:24:37.621Z,7.60
2022-08-20T17:27:10.113Z,5.20
2022-08-20T17:29:52.951Z,9.77
2022-08-20T17:32:28.152Z,9.85
2022-08-20T17:34:58.508Z,6.18
2022-08-20T17:37:32.722Z,9.15
2022-08-20T17:40:09.172Z,6.80
2022-08-20T17:42:51.242Z,8.15
2022-08-20T17:45:42.147Z,7.20
2022-08-20T17:48:14.284Z,6.10
2022-08-20T17:50:43.369Z,8.20
2022-08-20T17:53:33.979Z,7.15
2022-08-20T17:56:21.051Z,6.63
2022-08-20T17:59:03.186Z,7.88
2022-08-20T18:01:30.569Z,8.75
2022-08-20T18:03:58.204Z,7.82
2022-08-20T18:06:37.141Z,5.90
2022-08-20T18:11:51.870Z,6.70
2022-08-20T18:14:45.616Z,7.15
2022-08-20T18:17:25.619Z,6.45
2022-08-20T18:19:59.235Z,7.53
2022-08-20T18:22:29.847Z,8.57
2022-08-20T18:27:35.480Z,8.25
2022-08-20T18:30:02.309Z,9.07
2022-08-20T18:32:36.957Z,9.18
2022-08-20T18:35:32.733Z,5.88
2022-08-20T18:38:22.623Z,7.10
2022-08-20T18:40:54.433Z,8.63
2022-08-20T18:43:30.435Z,8.75
2022-08-20T18:46:28.602Z,7.05
2022-08-20T18:49:06.521Z,7.95
2022-08-20T18:51:50.597Z,11.30
2022-08-20T18:54:30.671Z,9.55
2022-08-20T18:57:05.563Z,6.57
2022-08-20T18:59:40.184Z,8.50
2022-08-20T19:02:37.382Z,7.65
2022-08-20T19:05:10.262Z,6.25
2022-08-20T19:07:48.015Z,8.20
2022-08-20T19:10:42.495Z,9.50
2022-08-20T19:13:58.980Z,6.35
2022-08-20T19:16:40.519Z,8.13
2022-08-20T19:19:21.672Z,6.55
2022-08-20T19:21:49.364Z,7.95
2022-08-20T19:24:23.143Z,9.02
2022-08-20T19:26:56.425Z,6.95
2022-08-20T19:29:31.897Z,6.40
2022-08-20T19:32:01.439Z,10.95
2022-08-20T19:34:28.732Z,9.30
2022-08-20T19:37:08.900Z,5.78
2022-08-20T19:39:46.626Z,5.35
2022-08-20T19:42:29.424Z,6.75
2022-08-20T19:44:57.378Z,6.25
2022-08-20T19:48:05.801Z,11.77
2022-08-20T19:50:52.942Z,6.93
2022-08-20T19:53:30.314Z,6.03
2022-08-20T19:56:06.606Z,6.53
2022-08-20T19:58:35.167Z,8.35
2022-08-20T20:01:04.019Z,5.75
2022-08-20T20:03:34.420Z,8.48
2022-08-20T20:06:16.590Z,9.70
2022-08-20T20:08:58.448Z,8.23
2022-08-20T20:11:35.522Z,8.60
2022-08-20T20:14:05.740Z,8.85
2022-08-20T20:16:33.651Z,8.48
2022-08-20T20:19:24.697Z,5.53
2022-08-20T20:22:02.208Z,7.50
2022-08-20T20:24:39.648Z,8.63
2022-08-20T20:27:14.829Z,11.23
2022-08-20T20:29:46.771Z,8.70
2022-08-20T20:32:19.918Z,9.65
2022-08-20T20:34:56.867Z,9.10
2022-08-20T20:37:50.257Z,7.05
2022-08-20T20:40:25.833Z,8.57
2022-08-20T20:43:06.644Z,7.82
2022-08-20T20:45:41.808Z,8.02
2022-08-20T20:48:19.411Z,9.05
2022-08-20T20:50:47.166Z,11.82
2022-08-20T20:53:24.273Z,8.45
2022-08-20T20:56:00.151Z,7.97
2022-08-20T20:58:28.427Z,8.73
2022-08-20T21:00:55.572Z,7.07
2022-08-20T21:03:23.795Z,10.15
2022-08-20T21:05:50.507Z,6.68
2022-08-20T21:08:17.332Z,9.23
2022-08-20T21:10:44.073Z,8.68
2022-08-20T21:13:11.536Z,8.95
2022-08-20T21:15:39.461Z,9.25
2022-08-20T21:18:09.174Z,8.35
2022-08-20T21:20:36.281Z,8.57
2022-08-20T21:23:03.888Z,10.85
2022-08-20T21:25:32.580Z,7.60
2022-08-20T21:27:59.616Z,6.47
2022-08-20T21:30:27.311Z,9.05
2022-08-20T21:32:54.023Z,8.68
2022-08-20T21:35:21.222Z,6.57
2022-08-20T21:37:47.983Z,6.32
2022-08-20T21:40:14.965Z,7.18
2022-08-20T21:42:45.049Z,7.22
2022-08-20T21:45:15.468Z,5.18
2022-08-20T21:47:46.821Z,6.03
2022-08-20T21:50:18.586Z,10.05
2022-08-20T21:52:55.186Z,6.38
2022-08-20T21:55:39.435Z,9.20
2022-08-20T21:58:07.008Z,9.05
2022-08-20T22:00:54.205Z,7.25
2022-08-20T22:03:24.194Z,8.63
2022-08-20T22:05:51.564Z,9.27
2022-08-20T22:08:18.809Z,9.63
2022-08-20T22:10:45.912Z,7.55
2022-08-20T22:13:13.202Z,9.50
2022-08-20T22:15:40.427Z,10.07
2022-08-20T22:18:07.787Z,8.50
2022-08-20T22:20:34.871Z,7.50
2022-08-20T22:23:05.240Z,8.30
2022-08-20T22:25:32.672Z,5.75
2022-08-20T22:27:59.751Z,9.88
2022-08-20T22:30:27.999Z,7.07
2022-08-20T22:33:03.814Z,12.07
2022-08-20T22:35:32.222Z,6.32
2022-08-20T22:37:59.072Z,7.70
2022-08-20T22:40:26.230Z,9.25
2022-08-20T22:42:52.936Z,6.63
2022-08-20T22:45:19.945Z,7.68
2022-08-20T22:47:46.770Z,6.95
2022-08-20T22:50:14.095Z,7.78
2022-08-20T22:52:43.311Z,6.97
2022-08-20T22:55:10.319Z,9.15
2022-08-20T22:57:37.846Z,8.45
2022-08-20T23:00:09.111Z,5.90
2022-08-20T23:02:35.891Z,7.28
2022-08-20T23:05:02.700Z,9.82
2022-08-20T23:07:29.394Z,8.32
2022-08-20T23:12:22.815Z,6.10
2022-08-20T23:17:18.939Z,7.82
2022-08-20T23:19:47.569Z,6.90
2022-08-20T23:22:14.658Z,8.13
2022-08-20T23:24:41.431Z,8.07
2022-08-20T23:29:36.556Z,6.60
2022-08-20T23:34:30.444Z,6.85
2022-08-20T23:36:57.720Z,9.93
2022-08-20T23:39:25.455Z,9.13
2022-08-20T23:41:52.479Z,11.50
2022-08-20T23:44:26.210Z,9.68
2022-08-20T23:46:56.212Z,7.75
2022-08-20T23:49:22.941Z,15.60
2022-08-20T23:54:16.199Z,7.95
2022-08-20T23:56:42.883Z,10.93
